createdAt,value
2019-03-25T00:00:04.736Z,31
2019-03-25T00:15:04.482Z,31
2019-03-25T00:30:04.472Z,31
2019-03-25T00:45:04.221Z,31
2019-03-25T01:00:04.581Z,31
2019-03-25T01:15:04.892Z,31
2019-03-25T01:30:04.503Z,31
2019-03-25T01:45:04.732Z,31
2019-03-25T02:00:04.510Z,30
2019-03-25T02:15:04.291Z,30
2019-03-25T02:30:04.167Z,31
2019-03-25T02:45:04.449Z,31
2019-03-25T03:00:04.792Z,30
2019-03-25T03:15:04.619Z,30
2019-03-25T03:30:05.110Z,31
2019-03-25T03:45:04.383Z,31
2019-03-25T04:00:05.063Z,31
2019-03-25T04:15:04.848Z,31
2019-03-25T04:30:04.471Z,30
2019-03-25T04:45:04.196Z,32
2019-03-25T05:00:04.771Z,35
2019-03-25T05:15:04.520Z,33
2019-03-25T05:30:04.699Z,33
2019-03-25T05:45:05.006Z,33
2019-03-25T06:00:04.248Z,34
2019-03-25T06:15:04.482Z,32
2019-03-25T06:30:05.119Z,32
2019-03-25T06:45:04.320Z,31
2019-03-25T07:00:04.571Z,31
2019-03-25T07:15:04.872Z,32
2019-03-25T07:30:04.802Z,32
2019-03-25T07:45:04.569Z,32
2019-03-25T08:00:14.454Z,31
2019-03-25T08:15:04.409Z,32
2019-03-25T08:30:04.369Z,31
2019-03-25T08:45:04.573Z,31
2019-03-25T09:00:04.345Z,32
2019-03-25T09:15:05.029Z,31
2019-03-25T09:30:04.999Z,31
2019-03-25T09:45:04.766Z,31
2019-03-25T10:00:04.505Z,29
2019-03-25T10:15:04.202Z,29
2019-03-25T10:30:04.709Z,29
2019-03-25T10:45:05.067Z,29
2019-03-25T11:00:04.804Z,29
2019-03-25T11:15:05.104Z,28
2019-03-25T11:30:05.880Z,29
2019-03-25T11:45:04.538Z,29
2019-03-25T12:00:04.806Z,28
2019-03-25T12:15:04.953Z,29
2019-03-25T12:30:04.354Z,30
2019-03-25T12:45:05.142Z,28
2019-03-25T13:00:04.385Z,28
2019-03-25T13:15:04.699Z,30
2019-03-25T13:30:04.737Z,29
2019-03-25T13:45:04.993Z,28
2019-03-25T14:00:04.792Z,29
2019-03-25T14:15:04.529Z,28
2019-03-25T14:30:15.335Z,29
2019-03-25T14:45:05.097Z,28
2019-03-25T15:00:04.791Z,28
2019-03-25T15:15:04.941Z,28
2019-03-25T15:30:05.231Z,29
2019-03-25T15:45:04.182Z,29
2019-03-25T16:00:04.960Z,29
2019-03-25T16:15:04.203Z,30
2019-03-25T16:30:04.738Z,33
2019-03-25T16:45:04.544Z,32
2019-03-25T17:00:04.794Z,32
2019-03-25T17:15:04.509Z,34
2019-03-25T17:30:05.079Z,31
2019-03-25T17:45:04.317Z,33
2019-03-25T18:00:04.573Z,30
2019-03-25T18:15:09.315Z,30
2019-03-25T18:30:04.287Z,31
2019-03-25T18:45:05.088Z,29
2019-03-25T19:00:04.855Z,30
2019-03-25T19:15:04.181Z,31
2019-03-25T19:30:04.593Z,31
2019-03-25T19:45:04.979Z,33
2019-03-25T20:00:04.827Z,32
2019-03-25T20:15:04.758Z,32
2019-03-25T20:30:04.412Z,30
2019-03-25T20:45:04.141Z,30
2019-03-25T21:00:05.142Z,31
2019-03-25T21:15:05.204Z,30
2019-03-25T21:30:04.435Z,30
2019-03-25T21:45:04.442Z,31
2019-03-25T22:00:04.816Z,30
2019-03-25T22:15:04.182Z,29
2019-03-25T22:30:05.050Z,29
2019-03-25T22:45:04.255Z,30
2019-03-25T23:00:05.077Z,31
2019-03-25T23:15:04.773Z,30
2019-03-25T23:30:04.741Z,30
2019-03-25T23:45:05.067Z,29
